Autumn — V7QA6 — position and weather

sailwx.info

Track history (hours):
 
Tides and Currents Weather Stations Pressure Air Temp Water Temp Dewpoint Dewpoint Depression Visibility Wind Speed Wind Dir Waves Ship Positions

Autumn

Last reported at 2017-Jan-16 16:33 UTC. Time now 2017-Jan-16 17:13 UTC.
Position N 51°21' E 004°17'.

Length 129 m; draft 6.3 m.

Type: Tanker. MMSI: 538003323.

Date/timePositionNaut miles runAvg speedWind from/ knotsBaromVisibWave heightAir tempDewpointWater temp
2017-Jan-16 16:33N 51°21' E 004°17'0 0.0
2017-Jan-16 15:33N 51°21' E 004°17'4 0.6
2017-Jan-16 09:14N 51°17' E 004°20'0 0.0
2017-Jan-15 15:27N 51°17' E 004°20'4 4.2
2017-Jan-15 14:33N 51°21' E 004°17'0 0.1
2017-Jan-15 13:33N 51°21' E 004°17'5 5.0
2017-Jan-15 12:33N 51°23' E 004°10'8 8.3
2017-Jan-15 11:33N 51°23' E 003°57'9 9.1
2017-Jan-15 10:33N 51°24' E 003°42'8 8.2
2017-Jan-15 09:34N 51°25' E 003°29'10 9.8
2017-Jan-15 08:34N 51°24' E 003°14'10 9.6
2017-Jan-15 07:34N 51°23' E 002°58'1111.0
2017-Jan-15 06:33N 51°22' E 002°41'5 5.2
2017-Jan-15 05:30N 51°19' E 002°33'0 0.1
2017-Jan-15 04:33N 51°20' E 002°33'0 0.0
2017-Jan-15 03:33N 51°20' E 002°33'0 0.0
2017-Jan-15 02:33N 51°20' E 002°33'0 0.2
2017-Jan-15 01:30N 51°19' E 002°33'0 0.1
2017-Jan-15 00:33N 51°19' E 002°33'0 0.1
2017-Jan-14 23:33N 51°19' E 002°33'0 0.1
2017-Jan-14 22:34N 51°19' E 002°32'0 0.0
2017-Jan-14 21:33N 51°19' E 002°32'0 0.0
2017-Jan-14 20:33N 51°19' E 002°32'0 0.1
2017-Jan-14 19:33N 51°19' E 002°33'0 0.1
2017-Jan-14 18:33N 51°19' E 002°33'0 0.1
2017-Jan-14 17:30N 51°19' E 002°33'0 0.1
2017-Jan-14 16:33N 51°19' E 002°33'0 0.1
2017-Jan-14 15:33N 51°20' E 002°33'0 0.0
2017-Jan-14 14:33N 51°19' E 002°33'0 0.0
2017-Jan-14 13:33N 51°19' E 002°33'0 0.1
2017-Jan-14 12:33N 51°19' E 002°33'0 0.2
2017-Jan-14 11:33N 51°19' E 002°33'0 0.1
2017-Jan-14 10:33N 51°19' E 002°32'0 0.0
2017-Jan-14 09:33N 51°19' E 002°32'0 0.0
2017-Jan-14 08:33N 51°19' E 002°32'0 0.0
2017-Jan-14 07:34N 51°19' E 002°33'0 0.1
2017-Jan-14 06:33N 51°19' E 002°33'0 0.1
2017-Jan-14 05:33N 51°19' E 002°33'0 0.1
2017-Jan-14 04:33N 51°19' E 002°33'0 0.1
2017-Jan-14 03:33N 51°19' E 002°33'0 0.1
2017-Jan-13 23:33N 51°19' E 002°33'0 0.1
2017-Jan-13 22:33N 51°19' E 002°33'0 0.0
2017-Jan-13 21:30N 51°19' E 002°33'0 0.1
2017-Jan-13 20:33N 51°19' E 002°32'0 0.3
2017-Jan-13 19:33N 51°19' E 002°32'0 0.2
2017-Jan-13 18:33N 51°19' E 002°32'1 0.5
2017-Jan-13 17:33N 51°20' E 002°32'0 0.2
2017-Jan-13 16:33N 51°20' E 002°31'0 0.4
2017-Jan-13 15:33N 51°19' E 002°32'0 0.4
2017-Jan-13 14:32N 51°19' E 002°33'0 0.4
2017-Jan-13 13:32N 51°19' E 002°32'1 1.0
2017-Jan-13 12:26N 51°20' E 002°34'0 0.5
2017-Jan-13 11:32N 51°20' E 002°33'0 0.2
2017-Jan-13 10:32N 51°19' E 002°33'0 0.1
2017-Jan-13 09:32N 51°20' E 002°33'0 0.0
2017-Jan-13 08:32N 51°20' E 002°33'0 0.0
2017-Jan-13 07:32N 51°20' E 002°33'0 0.1
2017-Jan-13 06:32N 51°19' E 002°33'0 0.1
2017-Jan-13 05:32N 51°20' E 002°33'2 2.4
2017-Jan-13 04:33N 51°22' E 002°32'1110.7
2017-Jan-13 03:33N 51°18' E 002°16'1211.9
2017-Jan-13 02:33N 51°12' E 001°59'1313.3
2017-Jan-13 01:33N 51°05' E 001°42'1514.5
2017-Jan-13 00:33N 50°54' E 001°27'5911.7
2017-Jan-12 19:32N 50°22' E 000°10'1212.1
2017-Jan-12 18:33N 50°18' W 000°08'3411.3
2017-Jan-12 15:33N 50°10' W 000°59'9 8.7
2017-Jan-12 14:33N 50°08' W 001°12'8 8.2
2017-Jan-12 13:33N 50°06' W 001°25'8 8.4
2017-Jan-12 12:33N 50°03' W 001°37'9 9.3
2017-Jan-12 11:33N 50°01' W 001°51'1111.1
2017-Jan-12 10:33N 49°58' W 002°08'8013.2
2017-Jan-12 04:31N 49°50' W 004°11'3812.8
2017-Jan-12 01:32N 49°51' W 005°10'228 9.1
2017-Jan-11 00:32N 53°34' W 003°50'1212.0
2017-Jan-10 23:33N 53°33' W 003°30'1010.4
2017-Jan-10 22:33N 53°31' W 003°13'9 9.1
2017-Jan-10 21:34N 53°26' W 003°01'7 6.8
2017-Jan-10 20:34N 53°19' W 002°57'1 1.3
2017-Jan-10 19:34N 53°18' W 002°56'2 2.4
2017-Jan-10 18:33N 53°17' W 002°52'0 0.1
2017-Jan-10 17:33N 53°17' W 002°52'0 0.0
2017-Jan-10 16:33N 53°17' W 002°52'0 0.0
2017-Jan-10 15:33N 53°17' W 002°52'0 0.0
2017-Jan-10 14:33N 53°17' W 002°52'0 0.0
2017-Jan-10 13:33N 53°17' W 002°52'0 0.0
2017-Jan-10 12:33N 53°17' W 002°52'0 0.0
2017-Jan-10 11:33N 53°17' W 002°52'0 0.0
2017-Jan-10 10:33N 53°17' W 002°52'0 0.0
2017-Jan-10 09:33N 53°17' W 002°52'0 0.0
2017-Jan-10 08:33N 53°17' W 002°52'0 0.0
2017-Jan-10 07:33N 53°17' W 002°52'0 0.0
2017-Jan-10 06:30N 53°17' W 002°52'0 0.0
2017-Jan-10 05:33N 53°17' W 002°52'0 0.0
2017-Jan-10 04:33N 53°17' W 002°52'0 0.0
2017-Jan-10 03:33N 53°17' W 002°52'0 0.0
2017-Jan-10 02:33N 53°17' W 002°52'0 0.0
2017-Jan-10 01:33N 53°17' W 002°52'0 0.0
2017-Jan-10 00:27N 53°17' W 002°52'0 0.0
2017-Jan-09 23:33N 53°17' W 002°52'0 0.0
2017-Jan-09 22:33N 53°17' W 002°52'0 0.0
2017-Jan-09 21:30N 53°17' W 002°52'0 0.0
2017-Jan-09 20:27N 53°17' W 002°52'0 0.0
2017-Jan-09 19:33N 53°17' W 002°52'0 0.0
2017-Jan-09 18:30N 53°17' W 002°52'0 0.0
2017-Jan-09 17:33N 53°17' W 002°52'0 0.0
2017-Jan-09 16:33N 53°17' W 002°52'0 0.0
2017-Jan-09 15:33N 53°17' W 002°52'0 0.0
2017-Jan-09 14:33N 53°17' W 002°52'0 0.0
2017-Jan-09 13:30N 53°17' W 002°52'0 0.0
2017-Jan-09 12:33N 53°17' W 002°52'0 0.0
2017-Jan-09 11:33N 53°17' W 002°52'0 0.0
2017-Jan-09 10:33N 53°17' W 002°52'0 0.0
2017-Jan-09 09:33N 53°17' W 002°52'0 0.0
2017-Jan-09 08:30N 53°17' W 002°52'0 0.0
2017-Jan-09 07:33N 53°17' W 002°52'0 0.0
2017-Jan-09 06:27N 53°17' W 002°52'0 0.0
2017-Jan-09 05:33N 53°17' W 002°52'2 1.8
2017-Jan-09 04:33N 53°18' W 002°55'2 1.6
2017-Jan-09 03:33N 53°19' W 002°57'0 0.0
2017-Jan-09 02:24N 53°19' W 002°57'0 0.0
2017-Jan-09 01:24N 53°19' W 002°57'0 0.0
2017-Jan-09 00:30N 53°19' W 002°57'0 0.0
2017-Jan-08 23:33N 53°19' W 002°57'0 0.0
2017-Jan-08 22:30N 53°19' W 002°57'0 0.0
2017-Jan-08 21:30N 53°19' W 002°57'0 0.0
2017-Jan-08 20:33N 53°19' W 002°57'2 2.1
2017-Jan-08 19:33N 53°21' W 002°58'6 6.1
2017-Jan-08 18:33N 53°27' W 003°02'10 9.7
2017-Jan-08 17:33N 53°31' W 003°16'6 6.0
2017-Jan-08 16:33N 53°29' W 003°26'0 0.1
2017-Jan-08 15:28N 53°29' W 003°25'4 4.2
2017-Jan-08 14:33N 53°30' W 003°32'1313.1
2017-Jan-08 13:33N 53°30' W 003°54'15511.5
2017-Jan-08 00:05N 51°13' W 005°51'712.9
2017-Jan-07 23:31N 51°06' W 005°51'1212.9
2017-Jan-07 22:33N 50°53' W 005°52'1312.8
2017-Jan-07 21:33N 50°41' W 005°52'1312.9
2017-Jan-07 20:33N 50°28' W 005°53'1313.0
2017-Jan-07 19:33N 50°15' W 005°53'1313.0
2017-Jan-07 18:33N 50°02' W 005°53'1111.4
2017-Jan-07 17:33N 49°56' W 005°37'1712.5
2017-Jan-07 16:13N 49°51' W 005°12'912.4
2017-Jan-07 15:31N 49°52' W 004°59'1212.3
2017-Jan-07 14:33N 49°53' W 004°41'1211.9
2017-Jan-07 13:33N 49°54' W 004°23'1211.5
2017-Jan-07 12:32N 49°55' W 004°04'1111.3
2017-Jan-07 11:33N 49°57' W 003°47'1211.6
2017-Jan-07 10:33N 49°58' W 003°29'1212.3
2017-Jan-07 09:33N 50°00' W 003°11'1312.9
2017-Jan-07 08:33N 50°01' W 002°51'4013.4
2017-Jan-07 05:33N 50°12' W 001°50'1211.7
2017-Jan-07 04:33N 50°15' W 001°33'1110.7
2017-Jan-07 03:32N 50°18' W 001°16'3110.2
2017-Jan-07 00:28N 50°27' W 000°29'1111.9
2017-Jan-06 23:33N 50°29' W 000°12'1312.7
2017-Jan-06 22:32N 50°32' E 000°07'4212.3
2017-Jan-06 19:08N 50°52' E 001°05'611.1
2017-Jan-06 18:33N 50°57' E 001°13'1010.2
2017-Jan-06 17:33N 51°03' E 001°25'10 9.9
2017-Jan-06 16:33N 51°09' E 001°37'  
Track history (hours):
 
Tides and Currents Weather Stations Pressure Air Temp Water Temp Dewpoint Dewpoint Depression Visibility Wind Speed Wind Dir Waves Ship Positions

Autumn

Last reported at 2017-Jan-16 16:33 UTC. Time now 2017-Jan-16 17:13 UTC.
Position N 51°21' E 004°17'.

Length 129 m; draft 6.3 m.

Type: Tanker. MMSI: 538003323.

Date/timePositionNaut miles runAvg speedWind from/ knotsBaromVisibWave heightAir tempDewpointWater temp
2017-Jan-16 16:33N 51°21' E 004°17'0 0.0
2017-Jan-16 15:33N 51°21' E 004°17'4 0.6
2017-Jan-16 09:14N 51°17' E 004°20'0 0.0
2017-Jan-15 15:27N 51°17' E 004°20'4 4.2
2017-Jan-15 14:33N 51°21' E 004°17'0 0.1
2017-Jan-15 13:33N 51°21' E 004°17'5 5.0
2017-Jan-15 12:33N 51°23' E 004°10'8 8.3
2017-Jan-15 11:33N 51°23' E 003°57'9 9.1
2017-Jan-15 10:33N 51°24' E 003°42'8 8.2
2017-Jan-15 09:34N 51°25' E 003°29'10 9.8
2017-Jan-15 08:34N 51°24' E 003°14'10 9.6
2017-Jan-15 07:34N 51°23' E 002°58'1111.0
2017-Jan-15 06:33N 51°22' E 002°41'5 5.2
2017-Jan-15 05:30N 51°19' E 002°33'0 0.1
2017-Jan-15 04:33N 51°20' E 002°33'0 0.0
2017-Jan-15 03:33N 51°20' E 002°33'0 0.0
2017-Jan-15 02:33N 51°20' E 002°33'0 0.2
2017-Jan-15 01:30N 51°19' E 002°33'0 0.1
2017-Jan-15 00:33N 51°19' E 002°33'0 0.1
2017-Jan-14 23:33N 51°19' E 002°33'0 0.1
2017-Jan-14 22:34N 51°19' E 002°32'0 0.0
2017-Jan-14 21:33N 51°19' E 002°32'0 0.0
2017-Jan-14 20:33N 51°19' E 002°32'0 0.1
2017-Jan-14 19:33N 51°19' E 002°33'0 0.1
2017-Jan-14 18:33N 51°19' E 002°33'0 0.1
2017-Jan-14 17:30N 51°19' E 002°33'0 0.1
2017-Jan-14 16:33N 51°19' E 002°33'0 0.1
2017-Jan-14 15:33N 51°20' E 002°33'0 0.0
2017-Jan-14 14:33N 51°19' E 002°33'0 0.0
2017-Jan-14 13:33N 51°19' E 002°33'0 0.1
2017-Jan-14 12:33N 51°19' E 002°33'0 0.2
2017-Jan-14 11:33N 51°19' E 002°33'0 0.1
2017-Jan-14 10:33N 51°19' E 002°32'0 0.0
2017-Jan-14 09:33N 51°19' E 002°32'0 0.0
2017-Jan-14 08:33N 51°19' E 002°32'0 0.0
2017-Jan-14 07:34N 51°19' E 002°33'0 0.1
2017-Jan-14 06:33N 51°19' E 002°33'0 0.1
2017-Jan-14 05:33N 51°19' E 002°33'0 0.1
2017-Jan-14 04:33N 51°19' E 002°33'0 0.1
2017-Jan-14 03:33N 51°19' E 002°33'0 0.1
2017-Jan-13 23:33N 51°19' E 002°33'0 0.1
2017-Jan-13 22:33N 51°19' E 002°33'0 0.0
2017-Jan-13 21:30N 51°19' E 002°33'0 0.1
2017-Jan-13 20:33N 51°19' E 002°32'0 0.3
2017-Jan-13 19:33N 51°19' E 002°32'0 0.2
2017-Jan-13 18:33N 51°19' E 002°32'1 0.5
2017-Jan-13 17:33N 51°20' E 002°32'0 0.2
2017-Jan-13 16:33N 51°20' E 002°31'0 0.4
2017-Jan-13 15:33N 51°19' E 002°32'0 0.4
2017-Jan-13 14:32N 51°19' E 002°33'0 0.4
2017-Jan-13 13:32N 51°19' E 002°32'1 1.0
2017-Jan-13 12:26N 51°20' E 002°34'0 0.5
2017-Jan-13 11:32N 51°20' E 002°33'0 0.2
2017-Jan-13 10:32N 51°19' E 002°33'0 0.1
2017-Jan-13 09:32N 51°20' E 002°33'0 0.0
2017-Jan-13 08:32N 51°20' E 002°33'0 0.0
2017-Jan-13 07:32N 51°20' E 002°33'0 0.1
2017-Jan-13 06:32N 51°19' E 002°33'0 0.1
2017-Jan-13 05:32N 51°20' E 002°33'2 2.4
2017-Jan-13 04:33N 51°22' E 002°32'1110.7
2017-Jan-13 03:33N 51°18' E 002°16'1211.9
2017-Jan-13 02:33N 51°12' E 001°59'1313.3
2017-Jan-13 01:33N 51°05' E 001°42'1514.5
2017-Jan-13 00:33N 50°54' E 001°27'5911.7
2017-Jan-12 19:32N 50°22' E 000°10'1212.1
2017-Jan-12 18:33N 50°18' W 000°08'3411.3
2017-Jan-12 15:33N 50°10' W 000°59'9 8.7
2017-Jan-12 14:33N 50°08' W 001°12'8 8.2
2017-Jan-12 13:33N 50°06' W 001°25'8 8.4
2017-Jan-12 12:33N 50°03' W 001°37'9 9.3
2017-Jan-12 11:33N 50°01' W 001°51'1111.1
2017-Jan-12 10:33N 49°58' W 002°08'8013.2
2017-Jan-12 04:31N 49°50' W 004°11'3812.8
2017-Jan-12 01:32N 49°51' W 005°10'228 9.1
2017-Jan-11 00:32N 53°34' W 003°50'1212.0
2017-Jan-10 23:33N 53°33' W 003°30'1010.4
2017-Jan-10 22:33N 53°31' W 003°13'9 9.1
2017-Jan-10 21:34N 53°26' W 003°01'7 6.8
2017-Jan-10 20:34N 53°19' W 002°57'1 1.3
2017-Jan-10 19:34N 53°18' W 002°56'2 2.4
2017-Jan-10 18:33N 53°17' W 002°52'0 0.1
2017-Jan-10 17:33N 53°17' W 002°52'0 0.0
2017-Jan-10 16:33N 53°17' W 002°52'0 0.0
2017-Jan-10 15:33N 53°17' W 002°52'0 0.0
2017-Jan-10 14:33N 53°17' W 002°52'0 0.0
2017-Jan-10 13:33N 53°17' W 002°52'0 0.0
2017-Jan-10 12:33N 53°17' W 002°52'0 0.0
2017-Jan-10 11:33N 53°17' W 002°52'0 0.0
2017-Jan-10 10:33N 53°17' W 002°52'0 0.0
2017-Jan-10 09:33N 53°17' W 002°52'0 0.0
2017-Jan-10 08:33N 53°17' W 002°52'0 0.0
2017-Jan-10 07:33N 53°17' W 002°52'0 0.0
2017-Jan-10 06:30N 53°17' W 002°52'0 0.0
2017-Jan-10 05:33N 53°17' W 002°52'0 0.0
2017-Jan-10 04:33N 53°17' W 002°52'0 0.0
2017-Jan-10 03:33N 53°17' W 002°52'0 0.0
2017-Jan-10 02:33N 53°17' W 002°52'0 0.0
2017-Jan-10 01:33N 53°17' W 002°52'0 0.0
2017-Jan-10 00:27N 53°17' W 002°52'0 0.0
2017-Jan-09 23:33N 53°17' W 002°52'0 0.0
2017-Jan-09 22:33N 53°17' W 002°52'0 0.0
2017-Jan-09 21:30N 53°17' W 002°52'0 0.0
2017-Jan-09 20:27N 53°17' W 002°52'0 0.0
2017-Jan-09 19:33N 53°17' W 002°52'0 0.0
2017-Jan-09 18:30N 53°17' W 002°52'0 0.0
2017-Jan-09 17:33N 53°17' W 002°52'0 0.0
2017-Jan-09 16:33N 53°17' W 002°52'0 0.0
2017-Jan-09 15:33N 53°17' W 002°52'0 0.0
2017-Jan-09 14:33N 53°17' W 002°52'0 0.0
2017-Jan-09 13:30N 53°17' W 002°52'0 0.0
2017-Jan-09 12:33N 53°17' W 002°52'0 0.0
2017-Jan-09 11:33N 53°17' W 002°52'0 0.0
2017-Jan-09 10:33N 53°17' W 002°52'0 0.0
2017-Jan-09 09:33N 53°17' W 002°52'0 0.0
2017-Jan-09 08:30N 53°17' W 002°52'0 0.0
2017-Jan-09 07:33N 53°17' W 002°52'0 0.0
2017-Jan-09 06:27N 53°17' W 002°52'0 0.0
2017-Jan-09 05:33N 53°17' W 002°52'2 1.8
2017-Jan-09 04:33N 53°18' W 002°55'2 1.6
2017-Jan-09 03:33N 53°19' W 002°57'0 0.0
2017-Jan-09 02:24N 53°19' W 002°57'0 0.0
2017-Jan-09 01:24N 53°19' W 002°57'0 0.0
2017-Jan-09 00:30N 53°19' W 002°57'0 0.0
2017-Jan-08 23:33N 53°19' W 002°57'0 0.0
2017-Jan-08 22:30N 53°19' W 002°57'0 0.0
2017-Jan-08 21:30N 53°19' W 002°57'0 0.0
2017-Jan-08 20:33N 53°19' W 002°57'2 2.1
2017-Jan-08 19:33N 53°21' W 002°58'6 6.1
2017-Jan-08 18:33N 53°27' W 003°02'10 9.7
2017-Jan-08 17:33N 53°31' W 003°16'6 6.0
2017-Jan-08 16:33N 53°29' W 003°26'0 0.1
2017-Jan-08 15:28N 53°29' W 003°25'4 4.2
2017-Jan-08 14:33N 53°30' W 003°32'1313.1
2017-Jan-08 13:33N 53°30' W 003°54'15511.5
2017-Jan-08 00:05N 51°13' W 005°51'712.9
2017-Jan-07 23:31N 51°06' W 005°51'1212.9
2017-Jan-07 22:33N 50°53' W 005°52'1312.8
2017-Jan-07 21:33N 50°41' W 005°52'1312.9
2017-Jan-07 20:33N 50°28' W 005°53'1313.0
2017-Jan-07 19:33N 50°15' W 005°53'1313.0
2017-Jan-07 18:33N 50°02' W 005°53'1111.4
2017-Jan-07 17:33N 49°56' W 005°37'1712.5
2017-Jan-07 16:13N 49°51' W 005°12'912.4
2017-Jan-07 15:31N 49°52' W 004°59'1212.3
2017-Jan-07 14:33N 49°53' W 004°41'1211.9
2017-Jan-07 13:33N 49°54' W 004°23'1211.5
2017-Jan-07 12:32N 49°55' W 004°04'1111.3
2017-Jan-07 11:33N 49°57' W 003°47'1211.6
2017-Jan-07 10:33N 49°58' W 003°29'1212.3
2017-Jan-07 09:33N 50°00' W 003°11'1312.9
2017-Jan-07 08:33N 50°01' W 002°51'4013.4
2017-Jan-07 05:33N 50°12' W 001°50'1211.7
2017-Jan-07 04:33N 50°15' W 001°33'1110.7
2017-Jan-07 03:32N 50°18' W 001°16'3110.2
2017-Jan-07 00:28N 50°27' W 000°29'1111.9
2017-Jan-06 23:33N 50°29' W 000°12'1312.7
2017-Jan-06 22:32N 50°32' E 000°07'4212.3
2017-Jan-06 19:08N 50°52' E 001°05'611.1
2017-Jan-06 18:33N 50°57' E 001°13'1010.2
2017-Jan-06 17:33N 51°03' E 001°25'10 9.9
2017-Jan-06 16:33N 51°09' E 001°37'  

Dump ship's entire track history